Khanom, Thailand

4:49 AM ICT on July 02, 2015 (GMT +0700)
SamuiWebCam.com @ The Jungle Club, Koh Samui, Thailand | | Change Station
CLOSE
Current Station
Personal Weather Station
Location: Thailand,
Elevation: 492 ft
Nearby Weather Stations

Elev 492 ft 9.50 °N, 100.05 °E | Updated 1 minute ago

Mostly Cloudy
Mostly Cloudy
80.1 °F
Feels Like 84 °F
N
0.0
Wind Variable Wind from SSE
Gusts 0.0 mph

Today
High -- | Low -- °F
--% Chance of Precip.
Yesterday
High -- | Low -- °F
Precip. -- in
6:04 AM 6:44 PM
Full, 100% visible
Pressure 29.86 in
Visibility 4.3 miles
Clouds Few 2000 ft
Mostly Cloudy 12000 ft
Mostly Cloudy 30000 ft
Heat Index 84 °F
Dew Point 73 °F
Humidity 80%
Rainfall 0.00 in
Snow Depth Not available.
UV 0.0 out of 12
Pollen Not available.
Air Quality Not available.
Flu Activity Not available.
METAR VTSB 012000Z 00000KT 7000 FEW020 BKN120 BKN300 26/24 Q1011 A2985

More Conditions Fewer Conditions

Pressure 29.86 in
Visibility 4.3 miles
Clouds Few 2000 ft
Mostly Cloudy 12000 ft
Mostly Cloudy 30000 ft
Heat Index 84 °F
Dew Point 73 °F
Humidity 80%
Rainfall 0.00 in
Snow Depth Not available.
UV 0.0 out of 12
Pollen Not available.
Air Quality Not available.
Flu Activity Not available.
METAR VTSB 012000Z 00000KT 7000 FEW020 BKN120 BKN300 26/24 Q1011 A2985

More Conditions Fewer Conditions

10-Day Weather Forecast

×

Almanac

Astronomy

Jul. 02, 2015 Rise Set
Actual Time
Civil Twilight
Nautical Twilight
Astronomical Twilight
Moon
Length of Visible Light
Length of Day
Tomorrow will be .
, % of the Moon is Illuminated

Today's Extremes

Country Highs Country Lows

Community

WunderPhotos

Upload Photos

1,834,295 photos uploaded!

WunderBlogs® & News

Nearby

Air Quality

  Air Quality AQ Index Pollutant
Not available.

Snow Depth

Station Depth Elevation

Earthquake Activity

City Distance Mag. Time & Date
Minimum magnitude displayed is 2.5.

Coastal Water Temperatures

Place Temperature

Stations

Nearby Weather Stations

Station Location Temp. Windchill Dew Point Humidity Wind Precip. Elev Updated Type